Washington, District of Columbia
Traffic Map
Current Weather Conditions
Washington, District of Columbia
Scattered Clouds
Scattered Clouds
18°
Feels Like: 18°
Wind Chill: 18° Ceiling: Unl
Heat Index: 18° Visibility: 10mi
Dew Point: 13° Wind: 12mph
Humidity: 72% Direction: 170° (S)
Pressure: 29.91in Gusts: 0mph
Raw Report DataKDCA 231552Z 17010KT 10SM FEW080 SCT250 18/13 A2991 RMK AO2 SLP127 T01780128
Traffic Incident Summary
Active as of:
Severity:
Category:
InformationThere was an issue retrieving the traffic information for this location. Please try a different location or try again shortly.
Advertisements
Track Severe Weather on mobile